sensor_id;sensor_type;location;lat;lon;timestamp;temperature;humidity
8002;DHT22;4046;48.774;8.732;2024-03-23T00:54:34;20.90;78.50
8002;DHT22;4046;48.774;8.732;2024-03-23T00:57:01;20.90;78.60
8002;DHT22;4046;48.774;8.732;2024-03-23T00:59:27;20.90;78.60
8002;DHT22;4046;48.774;8.732;2024-03-23T01:01:54;20.90;78.60
8002;DHT22;4046;48.774;8.732;2024-03-23T01:04:21;20.90;78.60
8002;DHT22;4046;48.774;8.732;2024-03-23T01:06:47;20.90;78.60
8002;DHT22;4046;48.774;8.732;2024-03-23T01:09:14;20.90;78.60
8002;DHT22;4046;48.774;8.732;2024-03-23T01:11:40;20.90;78.60
8002;DHT22;4046;48.774;8.732;2024-03-23T01:14:06;20.90;78.60
8002;DHT22;4046;48.774;8.732;2024-03-23T01:16:33;20.90;78.60
8002;DHT22;4046;48.774;8.732;2024-03-23T01:18:59;20.90;78.60
8002;DHT22;4046;48.774;8.732;2024-03-23T01:21:25;20.90;78.60
8002;DHT22;4046;48.774;8.732;2024-03-23T01:23:51;20.90;78.60
8002;DHT22;4046;48.774;8.732;2024-03-23T01:26:17;20.90;78.60
8002;DHT22;4046;48.774;8.732;2024-03-23T01:28:44;20.90;78.50
8002;DHT22;4046;48.774;8.732;2024-03-23T01:31:10;20.90;78.60
8002;DHT22;4046;48.774;8.732;2024-03-23T01:33:36;20.90;78.60
8002;DHT22;4046;48.774;8.732;2024-03-23T01:36:03;20.90;78.60
8002;DHT22;4046;48.774;8.732;2024-03-23T01:38:30;20.90;78.60
8002;DHT22;4046;48.774;8.732;2024-03-23T01:40:57;20.90;78.60
8002;DHT22;4046;48.774;8.732;2024-03-23T01:43:23;20.90;78.60
8002;DHT22;4046;48.774;8.732;2024-03-23T01:45:50;20.90;78.60
8002;DHT22;4046;48.774;8.732;2024-03-23T01:48:22;20.90;78.60
8002;DHT22;4046;48.774;8.732;2024-03-23T01:50:48;20.90;78.50
8002;DHT22;4046;48.774;8.732;2024-03-23T01:53:15;20.90;78.60
8002;DHT22;4046;48.774;8.732;2024-03-23T01:55:43;20.90;78.60
8002;DHT22;4046;48.774;8.732;2024-03-23T01:58:09;20.90;79.30
8002;DHT22;4046;48.774;8.732;2024-03-23T02:00:36;20.80;78.50
8002;DHT22;4046;48.774;8.732;2024-03-23T02:03:22;20.90;78.50
8002;DHT22;4046;48.774;8.732;2024-03-23T02:05:49;20.90;78.60
8002;DHT22;4046;48.774;8.732;2024-03-23T02:08:17;20.80;78.50
8002;DHT22;4046;48.774;8.732;2024-03-23T02:10:44;20.90;79.30
8002;DHT22;4046;48.774;8.732;2024-03-23T02:13:10;20.80;78.50
8002;DHT22;4046;48.774;8.732;2024-03-23T02:15:37;20.80;78.50
8002;DHT22;4046;48.774;8.732;2024-03-23T02:18:03;20.80;78.50
8002;DHT22;4046;48.774;8.732;2024-03-23T02:20:30;20.80;78.50
8002;DHT22;4046;48.774;8.732;2024-03-23T02:22:56;20.80;78.50
8002;DHT22;4046;48.774;8.732;2024-03-23T02:25:22;20.80;78.50
8002;DHT22;4046;48.774;8.732;2024-03-23T02:27:48;20.80;78.50
8002;DHT22;4046;48.774;8.732;2024-03-23T02:30:15;20.80;78.50
8002;DHT22;4046;48.774;8.732;2024-03-23T02:32:41;20.80;78.50
8002;DHT22;4046;48.774;8.732;2024-03-23T02:35:08;20.80;78.50
8002;DHT22;4046;48.774;8.732;2024-03-23T02:37:34;20.80;78.50
8002;DHT22;4046;48.774;8.732;2024-03-23T02:40:00;21.00;78.70
8002;DHT22;4046;48.774;8.732;2024-03-23T02:42:26;20.80;78.50
8002;DHT22;4046;48.774;8.732;2024-03-23T02:44:53;20.80;78.50
8002;DHT22;4046;48.774;8.732;2024-03-23T02:47:19;20.80;78.50
8002;DHT22;4046;48.774;8.732;2024-03-23T02:49:46;20.80;78.50
8002;DHT22;4046;48.774;8.732;2024-03-23T02:52:12;20.80;78.50
8002;DHT22;4046;48.774;8.732;2024-03-23T02:54:38;20.80;78.50
8002;DHT22;4046;48.774;8.732;2024-03-23T02:57:04;20.80;78.40
8002;DHT22;4046;48.774;8.732;2024-03-23T02:59:31;20.80;78.50
8002;DHT22;4046;48.774;8.732;2024-03-23T03:01:57;20.80;78.40
8002;DHT22;4046;48.774;8.732;2024-03-23T03:04:23;20.80;78.40
8002;DHT22;4046;48.774;8.732;2024-03-23T03:06:49;20.80;78.40
8002;DHT22;4046;48.774;8.732;2024-03-23T03:09:16;20.80;78.40
8002;DHT22;4046;48.774;8.732;2024-03-23T03:11:42;20.80;78.30
8002;DHT22;4046;48.774;8.732;2024-03-23T03:14:08;21.10;78.70
8002;DHT22;4046;48.774;8.732;2024-03-23T03:16:34;20.80;78.30
8002;DHT22;4046;48.774;8.732;2024-03-23T03:19:00;20.80;78.40
8002;DHT22;4046;48.774;8.732;2024-03-23T03:21:27;20.80;78.40
8002;DHT22;4046;48.774;8.732;2024-03-23T03:23:53;20.70;78.20
8002;DHT22;4046;48.774;8.732;2024-03-23T03:26:20;20.80;78.40
8002;DHT22;4046;48.774;8.732;2024-03-23T03:28:46;20.80;78.40
8002;DHT22;4046;48.774;8.732;2024-03-23T03:31:16;20.80;78.40
8002;DHT22;4046;48.774;8.732;2024-03-23T03:33:43;20.80;78.40
8002;DHT22;4046;48.774;8.732;2024-03-23T03:36:09;20.70;78.30
8002;DHT22;4046;48.774;8.732;2024-03-23T03:38:35;20.70;78.40
8002;DHT22;4046;48.774;8.732;2024-03-23T03:41:02;20.70;78.40
8002;DHT22;4046;48.774;8.732;2024-03-23T03:43:28;20.70;78.30
8002;DHT22;4046;48.774;8.732;2024-03-23T03:45:58;20.80;78.40
8002;DHT22;4046;48.774;8.732;2024-03-23T03:48:24;20.80;78.30
8002;DHT22;4046;48.774;8.732;2024-03-23T03:50:52;20.80;78.30
8002;DHT22;4046;48.774;8.732;2024-03-23T03:53:19;20.80;78.30
8002;DHT22;4046;48.774;8.732;2024-03-23T03:55:45;20.90;78.40
8002;DHT22;4046;48.774;8.732;2024-03-23T03:58:12;20.70;78.20
8002;DHT22;4046;48.774;8.732;2024-03-23T04:00:39;20.90;78.50
8002;DHT22;4046;48.774;8.732;2024-03-23T04:03:05;20.70;78.30
8002;DHT22;4046;48.774;8.732;2024-03-23T04:05:31;20.70;78.30
8002;DHT22;4046;48.774;8.732;2024-03-23T04:07:58;20.70;78.30
8002;DHT22;4046;48.774;8.732;2024-03-23T04:10:24;20.70;78.30
8002;DHT22;4046;48.774;8.732;2024-03-23T04:12:51;20.70;78.20
8002;DHT22;4046;48.774;8.732;2024-03-23T04:15:17;20.70;78.20
8002;DHT22;4046;48.774;8.732;2024-03-23T04:17:43;20.80;78.30
8002;DHT22;4046;48.774;8.732;2024-03-23T04:20:10;20.70;78.20
8002;DHT22;4046;48.774;8.732;2024-03-23T04:22:37;20.70;78.20
8002;DHT22;4046;48.774;8.732;2024-03-23T04:25:04;20.70;78.20
8002;DHT22;4046;48.774;8.732;2024-03-23T04:27:36;20.70;78.10
8002;DHT22;4046;48.774;8.732;2024-03-23T04:30:04;20.70;78.20
8002;DHT22;4046;48.774;8.732;2024-03-23T04:32:36;20.70;78.20
8002;DHT22;4046;48.774;8.732;2024-03-23T04:35:03;20.70;78.20
8002;DHT22;4046;48.774;8.732;2024-03-23T04:37:32;20.70;78.20
8002;DHT22;4046;48.774;8.732;2024-03-23T04:40:03;20.60;78.10
8002;DHT22;4046;48.774;8.732;2024-03-23T04:42:31;20.70;78.20
8002;DHT22;4046;48.774;8.732;2024-03-23T04:44:57;20.70;78.10
8002;DHT22;4046;48.774;8.732;2024-03-23T04:47:23;20.70;78.20
8002;DHT22;4046;48.774;8.732;2024-03-23T04:49:49;20.70;78.30
8002;DHT22;4046;48.774;8.732;2024-03-23T04:52:19;20.70;78.20
8002;DHT22;4046;48.774;8.732;2024-03-23T04:54:45;20.20;77.70
8002;DHT22;4046;48.774;8.732;2024-03-23T04:57:11;20.70;78.30
8002;DHT22;4046;48.774;8.732;2024-03-23T04:59:38;20.70;78.20
8002;DHT22;4046;48.774;8.732;2024-03-23T05:02:04;20.70;78.20
8002;DHT22;4046;48.774;8.732;2024-03-23T05:04:30;20.70;78.20
8002;DHT22;4046;48.774;8.732;2024-03-23T05:06:58;20.70;78.10
8002;DHT22;4046;48.774;8.732;2024-03-23T05:09:24;20.70;78.20
8002;DHT22;4046;48.774;8.732;2024-03-23T05:11:51;20.70;78.20
8002;DHT22;4046;48.774;8.732;2024-03-23T05:14:17;21.00;78.50
8002;DHT22;4046;48.774;8.732;2024-03-23T05:16:43;20.70;78.20
8002;DHT22;4046;48.774;8.732;2024-03-23T05:19:09;20.70;78.20
8002;DHT22;4046;48.774;8.732;2024-03-23T05:21:36;20.70;78.30
8002;DHT22;4046;48.774;8.732;2024-03-23T05:24:03;20.70;78.20
8002;DHT22;4046;48.774;8.732;2024-03-23T05:26:29;20.70;78.20
8002;DHT22;4046;48.774;8.732;2024-03-23T05:28:55;20.70;78.30
8002;DHT22;4046;48.774;8.732;2024-03-23T05:31:26;20.60;78.20
8002;DHT22;4046;48.774;8.732;2024-03-23T05:33:52;20.70;78.30
8002;DHT22;4046;48.774;8.732;2024-03-23T05:36:19;20.70;78.20
8002;DHT22;4046;48.774;8.732;2024-03-23T05:38:45;20.60;78.20
8002;DHT22;4046;48.774;8.732;2024-03-23T05:41:11;20.60;78.20
8002;DHT22;4046;48.774;8.732;2024-03-23T05:43:37;20.60;78.10
8002;DHT22;4046;48.774;8.732;2024-03-23T05:46:04;20.60;78.10
8002;DHT22;4046;48.774;8.732;2024-03-23T05:48:35;20.60;78.20
8002;DHT22;4046;48.774;8.732;2024-03-23T05:51:01;20.60;78.20
8002;DHT22;4046;48.774;8.732;2024-03-23T05:53:27;20.60;78.10
8002;DHT22;4046;48.774;8.732;2024-03-23T05:56:03;20.60;78.10
8002;DHT22;4046;48.774;8.732;2024-03-23T05:58:30;20.70;78.20
8002;DHT22;4046;48.774;8.732;2024-03-23T06:01:01;21.00;78.50
8002;DHT22;4046;48.774;8.732;2024-03-23T06:03:28;20.60;78.10
8002;DHT22;4046;48.774;8.732;2024-03-23T06:05:54;20.70;78.10
8002;DHT22;4046;48.774;8.732;2024-03-23T06:08:21;21.10;78.60
8002;DHT22;4046;48.774;8.732;2024-03-23T06:10:48;20.70;78.20
8002;DHT22;4046;48.774;8.732;2024-03-23T06:13:14;20.70;78.10
8002;DHT22;4046;48.774;8.732;2024-03-23T06:15:40;20.70;78.10
8002;DHT22;4046;48.774;8.732;2024-03-23T06:18:06;20.70;78.10
8002;DHT22;4046;48.774;8.732;2024-03-23T06:20:34;20.60;78.00
8002;DHT22;4046;48.774;8.732;2024-03-23T06:23:03;20.60;78.00
8002;DHT22;4046;48.774;8.732;2024-03-23T06:25:30;20.60;78.00
8002;DHT22;4046;48.774;8.732;2024-03-23T06:27:56;20.60;78.10
8002;DHT22;4046;48.774;8.732;2024-03-23T06:30:24;20.60;78.10
8002;DHT22;4046;48.774;8.732;2024-03-23T06:32:52;20.60;78.00
8002;DHT22;4046;48.774;8.732;2024-03-23T06:35:19;20.60;78.00
8002;DHT22;4046;48.774;8.732;2024-03-23T06:37:45;20.60;78.10
8002;DHT22;4046;48.774;8.732;2024-03-23T06:40:11;20.60;78.10
8002;DHT22;4046;48.774;8.732;2024-03-23T06:42:38;20.60;78.10
8002;DHT22;4046;48.774;8.732;2024-03-23T06:45:05;20.60;78.00
8002;DHT22;4046;48.774;8.732;2024-03-23T06:47:31;20.60;78.00
8002;DHT22;4046;48.774;8.732;2024-03-23T06:49:59;20.60;77.90
8002;DHT22;4046;48.774;8.732;2024-03-23T06:52:28;20.60;77.90
8002;DHT22;4046;48.774;8.732;2024-03-23T06:54:54;20.70;77.90
8002;DHT22;4046;48.774;8.732;2024-03-23T06:57:20;20.70;77.90
8002;DHT22;4046;48.774;8.732;2024-03-23T06:59:47;20.70;77.90
8002;DHT22;4046;48.774;8.732;2024-03-23T07:02:13;20.70;77.90
8002;DHT22;4046;48.774;8.732;2024-03-23T07:04:40;20.70;77.90
8002;DHT22;4046;48.774;8.732;2024-03-23T07:07:06;20.60;77.80
8002;DHT22;4046;48.774;8.732;2024-03-23T07:09:32;20.60;77.80
8002;DHT22;4046;48.774;8.732;2024-03-23T07:11:59;20.60;77.80
8002;DHT22;4046;48.774;8.732;2024-03-23T07:14:25;20.60;77.80
8002;DHT22;4046;48.774;8.732;2024-03-23T07:16:51;21.00;78.20
8002;DHT22;4046;48.774;8.732;2024-03-23T07:19:18;20.60;77.80
8002;DHT22;4046;48.774;8.732;2024-03-23T07:21:45;20.60;77.80
8002;DHT22;4046;48.774;8.732;2024-03-23T07:24:12;20.60;77.70
8002;DHT22;4046;48.774;8.732;2024-03-23T07:26:38;20.60;77.80
8002;DHT22;4046;48.774;8.732;2024-03-23T07:29:06;20.60;77.80
8002;DHT22;4046;48.774;8.732;2024-03-23T07:31:32;20.60;77.80
8002;DHT22;4046;48.774;8.732;2024-03-23T07:33:58;20.60;77.70
8002;DHT22;4046;48.774;8.732;2024-03-23T07:36:24;20.60;77.80
8002;DHT22;4046;48.774;8.732;2024-03-23T07:38:51;20.60;77.70
8002;DHT22;4046;48.774;8.732;2024-03-23T07:41:19;20.60;77.70
8002;DHT22;4046;48.774;8.732;2024-03-23T07:43:46;20.60;77.70
8002;DHT22;4046;48.774;8.732;2024-03-23T07:46:14;20.60;77.70
8002;DHT22;4046;48.774;8.732;2024-03-23T07:48:40;20.80;77.90
8002;DHT22;4046;48.774;8.732;2024-03-23T07:51:11;20.60;77.60
8002;DHT22;4046;48.774;8.732;2024-03-23T07:53:37;20.70;77.70
8002;DHT22;4046;48.774;8.732;2024-03-23T07:56:08;20.70;77.70
8002;DHT22;4046;48.774;8.732;2024-03-23T07:58:36;20.70;77.50
8002;DHT22;4046;48.774;8.732;2024-03-23T08:01:07;20.70;77.50
8002;DHT22;4046;48.774;8.732;2024-03-23T08:03:40;20.70;77.50
8002;DHT22;4046;48.774;8.732;2024-03-23T08:06:11;20.70;77.50
8002;DHT22;4046;48.774;8.732;2024-03-23T08:08:38;20.70;77.50
8002;DHT22;4046;48.774;8.732;2024-03-23T08:11:04;20.70;77.50
8002;DHT22;4046;48.774;8.732;2024-03-23T08:13:31;20.70;77.50
8002;DHT22;4046;48.774;8.732;2024-03-23T08:15:58;20.70;77.50
8002;DHT22;4046;48.774;8.732;2024-03-23T08:18:25;20.70;77.50
8002;DHT22;4046;48.774;8.732;2024-03-23T08:21:07;20.70;77.50
8002;DHT22;4046;48.774;8.732;2024-03-23T08:23:35;20.70;77.50
8002;DHT22;4046;48.774;8.732;2024-03-23T08:26:15;20.70;77.40
8002;DHT22;4046;48.774;8.732;2024-03-23T08:28:41;20.70;77.40
8002;DHT22;4046;48.774;8.732;2024-03-23T08:31:10;20.70;77.30
8002;DHT22;4046;48.774;8.732;2024-03-23T08:33:36;20.80;77.30
8002;DHT22;4046;48.774;8.732;2024-03-23T08:36:07;21.10;77.50
8002;DHT22;4046;48.774;8.732;2024-03-23T08:38:34;20.80;77.20
8002;DHT22;4046;48.774;8.732;2024-03-23T08:41:02;20.80;77.20
8002;DHT22;4046;48.774;8.732;2024-03-23T08:43:30;20.80;77.20
8002;DHT22;4046;48.774;8.732;2024-03-23T08:46:12;20.80;77.20
8002;DHT22;4046;48.774;8.732;2024-03-23T08:48:44;20.80;77.30
8002;DHT22;4046;48.774;8.732;2024-03-23T08:51:13;20.70;77.20
8002;DHT22;4046;48.774;8.732;2024-03-23T08:53:39;20.70;77.20
8002;DHT22;4046;48.774;8.732;2024-03-23T08:56:07;20.70;77.20
8002;DHT22;4046;48.774;8.732;2024-03-23T08:58:35;20.70;77.30
8002;DHT22;4046;48.774;8.732;2024-03-23T09:01:08;20.70;77.10
8002;DHT22;4046;48.774;8.732;2024-03-23T09:03:36;20.70;77.10
8002;DHT22;4046;48.774;8.732;2024-03-23T09:06:06;20.80;77.10
8002;DHT22;4046;48.774;8.732;2024-03-23T09:08:33;20.90;77.00
8002;DHT22;4046;48.774;8.732;2024-03-23T09:11:04;20.90;76.90
8002;DHT22;4046;48.774;8.732;2024-03-23T09:13:35;20.90;76.80
8002;DHT22;4046;48.774;8.732;2024-03-23T09:16:02;20.90;76.70
8002;DHT22;4046;48.774;8.732;2024-03-23T09:18:32;20.90;76.60
8002;DHT22;4046;48.774;8.732;2024-03-23T09:20:58;20.90;76.60
8002;DHT22;4046;48.774;8.732;2024-03-23T09:23:25;20.90;76.50
8002;DHT22;4046;48.774;8.732;2024-03-23T09:25:51;21.30;76.90
8002;DHT22;4046;48.774;8.732;2024-03-23T09:28:17;21.10;76.60
8002;DHT22;4046;48.774;8.732;2024-03-23T09:30:44;21.00;76.10
8002;DHT22;4046;48.774;8.732;2024-03-23T09:33:10;21.00;76.30
8002;DHT22;4046;48.774;8.732;2024-03-23T09:35:41;21.00;76.20
8002;DHT22;4046;48.774;8.732;2024-03-23T09:38:08;21.00;76.20
8002;DHT22;4046;48.774;8.732;2024-03-23T09:40:41;21.00;76.20
8002;DHT22;4046;48.774;8.732;2024-03-23T09:43:10;21.00;76.20
8002;DHT22;4046;48.774;8.732;2024-03-23T09:45:40;21.00;76.20
8002;DHT22;4046;48.774;8.732;2024-03-23T09:48:08;21.30;76.30
8002;DHT22;4046;48.774;8.732;2024-03-23T09:50:39;21.20;75.90
8002;DHT22;4046;48.774;8.732;2024-03-23T09:53:10;21.50;76.00
8002;DHT22;4046;48.774;8.732;2024-03-23T09:55:38;21.40;75.70
8002;DHT22;4046;48.774;8.732;2024-03-23T09:58:05;21.40;75.50
8002;DHT22;4046;48.774;8.732;2024-03-23T10:00:32;21.50;75.50
8002;DHT22;4046;48.774;8.732;2024-03-23T10:03:00;21.50;75.30
8002;DHT22;4046;48.774;8.732;2024-03-23T10:05:30;21.50;75.30
8002;DHT22;4046;48.774;8.732;2024-03-23T10:10:41;21.60;75.30
8002;DHT22;4046;48.774;8.732;2024-03-23T10:13:08;21.60;75.30
8002;DHT22;4046;48.774;8.732;2024-03-23T10:15:35;21.90;75.40
8002;DHT22;4046;48.774;8.732;2024-03-23T10:18:19;21.70;75.30
8002;DHT22;4046;48.774;8.732;2024-03-23T10:20:52;21.70;75.60
8002;DHT22;4046;48.774;8.732;2024-03-23T10:23:33;21.60;75.80
8002;DHT22;4046;48.774;8.732;2024-03-23T10:26:19;21.50;75.90
8002;DHT22;4046;48.774;8.732;2024-03-23T10:29:00;21.40;76.10
8002;DHT22;4046;48.774;8.732;2024-03-23T10:31:28;21.30;76.10
8002;DHT22;4046;48.774;8.732;2024-03-23T10:33:55;21.20;76.30
8002;DHT22;4046;48.774;8.732;2024-03-23T10:36:22;21.10;76.40
8002;DHT22;4046;48.774;8.732;2024-03-23T10:38:53;21.10;76.50
8002;DHT22;4046;48.774;8.732;2024-03-23T10:41:20;21.00;76.40
8002;DHT22;4046;48.774;8.732;2024-03-23T10:43:47;21.00;77.30
8002;DHT22;4046;48.774;8.732;2024-03-23T10:46:14;21.10;76.70
8002;DHT22;4046;48.774;8.732;2024-03-23T10:48:41;21.10;76.70
8002;DHT22;4046;48.774;8.732;2024-03-23T10:51:08;21.20;77.10
8002;DHT22;4046;48.774;8.732;2024-03-23T10:53:35;21.30;77.10
8002;DHT22;4046;48.774;8.732;2024-03-23T10:56:04;21.30;77.70
8002;DHT22;4046;48.774;8.732;2024-03-23T10:58:42;21.40;76.90
8002;DHT22;4046;48.774;8.732;2024-03-23T11:01:13;21.40;76.90
8002;DHT22;4046;48.774;8.732;2024-03-23T11:03:45;21.50;77.00
8002;DHT22;4046;48.774;8.732;2024-03-23T11:06:35;21.60;77.60
8002;DHT22;4046;48.774;8.732;2024-03-23T11:09:01;21.60;76.90
8002;DHT22;4046;48.774;8.732;2024-03-23T11:11:28;21.60;77.30
8002;DHT22;4046;48.774;8.732;2024-03-23T11:13:58;21.70;77.50
8002;DHT22;4046;48.774;8.732;2024-03-23T11:16:27;21.60;76.60
8002;DHT22;4046;48.774;8.732;2024-03-23T11:22:05;21.70;76.70
8002;DHT22;4046;48.774;8.732;2024-03-23T11:24:32;21.70;76.60
8002;DHT22;4046;48.774;8.732;2024-03-23T11:27:00;21.70;76.70
8002;DHT22;4046;48.774;8.732;2024-03-23T11:29:30;21.70;76.50
8002;DHT22;4046;48.774;8.732;2024-03-23T11:31:57;21.70;76.40
8002;DHT22;4046;48.774;8.732;2024-03-23T11:34:24;21.80;76.40
8002;DHT22;4046;48.774;8.732;2024-03-23T11:37:04;21.80;76.40
8002;DHT22;4046;48.774;8.732;2024-03-23T11:39:30;21.80;76.30
8002;DHT22;4046;48.774;8.732;2024-03-23T11:41:57;21.80;76.20
8002;DHT22;4046;48.774;8.732;2024-03-23T11:44:25;21.90;76.20
8002;DHT22;4046;48.774;8.732;2024-03-23T11:46:52;21.80;76.20
8002;DHT22;4046;48.774;8.732;2024-03-23T11:49:25;21.80;76.10
8002;DHT22;4046;48.774;8.732;2024-03-23T11:51:54;21.80;76.20
8002;DHT22;4046;48.774;8.732;2024-03-23T11:54:26;21.80;76.00
8002;DHT22;4046;48.774;8.732;2024-03-23T11:57:00;21.80;76.00
8002;DHT22;4046;48.774;8.732;2024-03-23T11:59:40;21.70;76.00
8002;DHT22;4046;48.774;8.732;2024-03-23T12:02:10;21.70;76.00
8002;DHT22;4046;48.774;8.732;2024-03-23T12:04:38;21.70;76.20
8002;DHT22;4046;48.774;8.732;2024-03-23T12:07:12;21.60;76.60
8002;DHT22;4046;48.774;8.732;2024-03-23T12:09:39;21.60;76.20
8002;DHT22;4046;48.774;8.732;2024-03-23T12:12:13;21.60;76.30
8002;DHT22;4046;48.774;8.732;2024-03-23T12:14:41;21.60;76.20
8002;DHT22;4046;48.774;8.732;2024-03-23T12:17:10;21.60;76.30
8002;DHT22;4046;48.774;8.732;2024-03-23T12:19:36;21.50;76.50
8002;DHT22;4046;48.774;8.732;2024-03-23T12:22:06;21.50;76.40
8002;DHT22;4046;48.774;8.732;2024-03-23T12:24:33;21.50;76.60
8002;DHT22;4046;48.774;8.732;2024-03-23T12:27:05;21.40;76.70
8002;DHT22;4046;48.774;8.732;2024-03-23T12:29:32;21.40;76.80
8002;DHT22;4046;48.774;8.732;2024-03-23T12:32:02;21.50;76.80
8002;DHT22;4046;48.774;8.732;2024-03-23T12:34:29;21.50;76.70
8002;DHT22;4046;48.774;8.732;2024-03-23T12:36:56;21.50;76.80
8002;DHT22;4046;48.774;8.732;2024-03-23T12:39:22;21.50;76.90
8002;DHT22;4046;48.774;8.732;2024-03-23T12:41:49;21.50;77.00
8002;DHT22;4046;48.774;8.732;2024-03-23T12:44:16;21.50;77.10
8002;DHT22;4046;48.774;8.732;2024-03-23T12:46:42;21.40;77.10
8002;DHT22;4046;48.774;8.732;2024-03-23T12:49:09;21.40;77.30
8002;DHT22;4046;48.774;8.732;2024-03-23T12:51:35;21.40;77.50
8002;DHT22;4046;48.774;8.732;2024-03-23T12:54:01;21.40;77.50
8002;DHT22;4046;48.774;8.732;2024-03-23T12:56:28;21.40;77.30
8002;DHT22;4046;48.774;8.732;2024-03-23T12:58:55;21.40;77.40
8002;DHT22;4046;48.774;8.732;2024-03-23T13:01:23;21.40;77.40
8002;DHT22;4046;48.774;8.732;2024-03-23T13:03:50;21.40;77.10
8002;DHT22;4046;48.774;8.732;2024-03-23T13:06:17;21.40;76.60
8002;DHT22;4046;48.774;8.732;2024-03-23T13:08:47;21.50;76.20
8002;DHT22;4046;48.774;8.732;2024-03-23T13:11:16;21.60;75.80
8002;DHT22;4046;48.774;8.732;2024-03-23T13:13:42;21.70;75.50
8002;DHT22;4046;48.774;8.732;2024-03-23T13:16:08;21.70;75.20
8002;DHT22;4046;48.774;8.732;2024-03-23T13:18:34;21.70;75.10
8002;DHT22;4046;48.774;8.732;2024-03-23T13:21:01;21.70;74.70
8002;DHT22;4046;48.774;8.732;2024-03-23T13:23:28;21.70;74.60
8002;DHT22;4046;48.774;8.732;2024-03-23T13:25:55;21.70;74.80
8002;DHT22;4046;48.774;8.732;2024-03-23T13:28:22;21.80;74.90
8002;DHT22;4046;48.774;8.732;2024-03-23T13:30:55;21.80;75.00
8002;DHT22;4046;48.774;8.732;2024-03-23T13:33:22;21.80;75.00
8002;DHT22;4046;48.774;8.732;2024-03-23T13:35:55;21.80;75.00
8002;DHT22;4046;48.774;8.732;2024-03-23T13:38:22;21.80;75.00
8002;DHT22;4046;48.774;8.732;2024-03-23T13:40:59;21.80;75.00
8002;DHT22;4046;48.774;8.732;2024-03-23T13:43:27;21.80;75.00
8002;DHT22;4046;48.774;8.732;2024-03-23T13:45:58;21.80;75.00
8002;DHT22;4046;48.774;8.732;2024-03-23T13:48:27;21.70;74.80
8002;DHT22;4046;48.774;8.732;2024-03-23T13:51:03;21.70;74.90
8002;DHT22;4046;48.774;8.732;2024-03-23T13:53:30;21.70;74.80
8002;DHT22;4046;48.774;8.732;2024-03-23T13:55:56;21.70;74.90
8002;DHT22;4046;48.774;8.732;2024-03-23T13:58:23;21.60;74.80
8002;DHT22;4046;48.774;8.732;2024-03-23T14:00:52;21.60;74.90
8002;DHT22;4046;48.774;8.732;2024-03-23T14:03:18;21.60;75.00
8002;DHT22;4046;48.774;8.732;2024-03-23T14:05:45;21.60;75.00
8002;DHT22;4046;48.774;8.732;2024-03-23T14:08:13;21.60;75.10
8002;DHT22;4046;48.774;8.732;2024-03-23T14:10:42;21.90;75.40
8002;DHT22;4046;48.774;8.732;2024-03-23T14:13:09;21.70;75.10
8002;DHT22;4046;48.774;8.732;2024-03-23T14:15:35;21.70;75.10
8002;DHT22;4046;48.774;8.732;2024-03-23T14:18:05;21.70;75.20
8002;DHT22;4046;48.774;8.732;2024-03-23T14:20:31;21.70;75.10
8002;DHT22;4046;48.774;8.732;2024-03-23T14:22:57;21.70;75.10
8002;DHT22;4046;48.774;8.732;2024-03-23T14:25:24;21.70;75.10
8002;DHT22;4046;48.774;8.732;2024-03-23T14:27:53;21.70;75.20
8002;DHT22;4046;48.774;8.732;2024-03-23T14:30:19;21.60;75.30
8002;DHT22;4046;48.774;8.732;2024-03-23T14:32:45;21.60;75.40
8002;DHT22;4046;48.774;8.732;2024-03-23T14:35:12;21.50;75.50
8002;DHT22;4046;48.774;8.732;2024-03-23T14:37:38;21.40;75.80
8002;DHT22;4046;48.774;8.732;2024-03-23T14:40:05;21.30;76.00
8002;DHT22;4046;48.774;8.732;2024-03-23T14:42:31;21.20;76.10
8002;DHT22;4046;48.774;8.732;2024-03-23T14:44:58;21.10;76.10
8002;DHT22;4046;48.774;8.732;2024-03-23T14:47:24;21.10;76.20
8002;DHT22;4046;48.774;8.732;2024-03-23T14:49:51;21.10;76.40
8002;DHT22;4046;48.774;8.732;2024-03-23T14:52:17;21.00;76.40
8002;DHT22;4046;48.774;8.732;2024-03-23T14:54:44;21.00;76.30
8002;DHT22;4046;48.774;8.732;2024-03-23T14:57:11;21.10;76.40
8002;DHT22;4046;48.774;8.732;2024-03-23T14:59:37;21.00;76.40
8002;DHT22;4046;48.774;8.732;2024-03-23T15:02:04;21.00;76.50
8002;DHT22;4046;48.774;8.732;2024-03-23T15:04:31;20.90;76.60
8002;DHT22;4046;48.774;8.732;2024-03-23T15:06:57;20.90;76.60
8002;DHT22;4046;48.774;8.732;2024-03-23T15:09:23;20.90;76.60
8002;DHT22;4046;48.774;8.732;2024-03-23T15:11:49;20.90;76.60
8002;DHT22;4046;48.774;8.732;2024-03-23T15:14:16;20.90;76.60
8002;DHT22;4046;48.774;8.732;2024-03-23T15:16:42;20.90;76.60
8002;DHT22;4046;48.774;8.732;2024-03-23T15:19:08;20.90;76.60
8002;DHT22;4046;48.774;8.732;2024-03-23T15:21:35;20.90;76.50
8002;DHT22;4046;48.774;8.732;2024-03-23T15:24:01;20.90;76.40
8002;DHT22;4046;48.774;8.732;2024-03-23T15:26:28;21.00;76.40
8002;DHT22;4046;48.774;8.732;2024-03-23T15:28:54;21.00;76.30
8002;DHT22;4046;48.774;8.732;2024-03-23T15:31:23;21.00;76.30
8002;DHT22;4046;48.774;8.732;2024-03-23T15:33:50;21.00;76.20
8002;DHT22;4046;48.774;8.732;2024-03-23T15:36:17;21.00;76.30
8002;DHT22;4046;48.774;8.732;2024-03-23T15:38:43;21.00;76.20
8002;DHT22;4046;48.774;8.732;2024-03-23T15:41:10;21.00;76.20
8002;DHT22;4046;48.774;8.732;2024-03-23T15:43:36;21.00;76.10
8002;DHT22;4046;48.774;8.732;2024-03-23T15:46:04;21.00;76.40
8002;DHT22;4046;48.774;8.732;2024-03-23T15:48:31;21.00;76.10
8002;DHT22;4046;48.774;8.732;2024-03-23T15:50:59;21.00;76.10
8002;DHT22;4046;48.774;8.732;2024-03-23T15:53:26;21.00;76.00
8002;DHT22;4046;48.774;8.732;2024-03-23T15:55:57;21.00;76.00
8002;DHT22;4046;48.774;8.732;2024-03-23T15:58:23;21.00;76.00
8002;DHT22;4046;48.774;8.732;2024-03-23T16:01:03;21.00;76.10
8002;DHT22;4046;48.774;8.732;2024-03-23T16:03:30;21.00;76.10
8002;DHT22;4046;48.774;8.732;2024-03-23T16:06:00;20.90;76.00
8002;DHT22;4046;48.774;8.732;2024-03-23T16:08:27;21.00;76.20
8002;DHT22;4046;48.774;8.732;2024-03-23T16:10:53;20.90;76.10
8002;DHT22;4046;48.774;8.732;2024-03-23T16:13:23;21.00;76.20
8002;DHT22;4046;48.774;8.732;2024-03-23T16:15:59;20.90;76.00
8002;DHT22;4046;48.774;8.732;2024-03-23T16:18:26;20.90;76.00
8002;DHT22;4046;48.774;8.732;2024-03-23T16:20:56;20.90;76.00
8002;DHT22;4046;48.774;8.732;2024-03-23T16:23:24;20.90;76.10
8002;DHT22;4046;48.774;8.732;2024-03-23T16:25:50;20.90;76.10
8002;DHT22;4046;48.774;8.732;2024-03-23T16:28:28;20.90;76.10
8002;DHT22;4046;48.774;8.732;2024-03-23T16:31:03;20.90;76.10
8002;DHT22;4046;48.774;8.732;2024-03-23T16:33:30;20.90;76.10
8002;DHT22;4046;48.774;8.732;2024-03-23T16:36:00;20.90;76.10
8002;DHT22;4046;48.774;8.732;2024-03-23T16:38:28;20.90;76.10
8002;DHT22;4046;48.774;8.732;2024-03-23T16:40:58;20.90;76.10
8002;DHT22;4046;48.774;8.732;2024-03-23T16:43:26;20.90;76.00
8002;DHT22;4046;48.774;8.732;2024-03-23T16:46:00;20.90;76.80
8002;DHT22;4046;48.774;8.732;2024-03-23T16:48:28;20.90;76.00
8002;DHT22;4046;48.774;8.732;2024-03-23T16:50:57;20.90;76.00
8002;DHT22;4046;48.774;8.732;2024-03-23T16:53:23;20.90;76.00
8002;DHT22;4046;48.774;8.732;2024-03-23T16:55:55;20.90;76.00
8002;DHT22;4046;48.774;8.732;2024-03-23T16:58:28;20.90;76.00
8002;DHT22;4046;48.774;8.732;2024-03-23T17:00:56;20.90;76.00
8002;DHT22;4046;48.774;8.732;2024-03-23T17:03:24;20.90;76.80
8002;DHT22;4046;48.774;8.732;2024-03-23T17:05:50;20.90;76.00